Friona, Texas
Current Conditions -  °F | °C
As of 3:55 PM on Tuesday 25 Nov 2014 (Local Time) from KCVN Reporting Station
Clear Clear  
Wind Chill: 55°   Ceiling: Unl
Heat Index: 55°   Visibility: 10mi
Dew Point:   Wind: 30mph
Humidity: 14%   Direction: 260°W
Pressure: 30.05"   Gusts: 39mph
Location:  34.64°N, 102.72°W
Report Text: KCVN 252155Z 26026G34KT 10SM CLR 13/M14 A3005 RMK AO1
Loading
Personal Weather Stations






























Interactive Weather Map New forecast layout! Learn more

10-Day Weather Forecast

Advertisements
Track Severe Weather on mobile